createdAt,value
2023-04-17T00:08:39.452Z,957.77
2023-04-17T00:23:41.223Z,957.32
2023-04-17T00:38:43.058Z,957.13
2023-04-17T00:53:44.845Z,957.14
2023-04-17T01:08:46.618Z,957.03
2023-04-17T01:23:48.372Z,956.84
2023-04-17T01:38:50.379Z,956.84
2023-04-17T01:53:52.211Z,956.85
2023-04-17T02:08:54.042Z,956.7
2023-04-17T02:23:55.854Z,956.65
2023-04-17T02:38:57.601Z,956.79
2023-04-17T02:53:59.664Z,956.95
2023-04-17T03:09:01.352Z,956.96
2023-04-17T03:24:03.083Z,957.27
2023-04-17T03:39:04.867Z,957.46
2023-04-17T03:54:06.589Z,957.53
2023-04-17T04:09:08.767Z,957.74
2023-04-17T04:24:10.605Z,957.71
2023-04-17T04:39:12.586Z,957.58
2023-04-17T04:54:14.434Z,957.55
2023-04-17T05:09:17.071Z,957.92
2023-04-17T05:24:19.179Z,958.73
2023-04-17T05:39:20.910Z,957.98
2023-04-17T05:54:22.681Z,958.05
2023-04-17T06:09:25.810Z,958.27
2023-04-17T06:24:27.705Z,958.62
2023-04-17T06:39:29.519Z,958.74
2023-04-17T06:54:31.561Z,958.86
2023-04-17T07:09:33.306Z,958.68
2023-04-17T07:24:35.059Z,958.63
2023-04-17T07:39:36.834Z,958.8
2023-04-17T07:54:38.591Z,958.72
2023-04-17T08:09:42.542Z,958.76
2023-04-17T08:24:45.658Z,958.65
2023-04-17T08:39:47.423Z,958.37
2023-04-17T08:54:51.162Z,958.47
2023-04-17T09:09:53.308Z,958.34
2023-04-17T09:24:56.799Z,958.19
2023-04-17T09:39:59.500Z,958
2023-04-17T09:55:01.527Z,957.74
2023-04-17T10:10:03.366Z,957.55
2023-04-17T10:25:05.154Z,957.6
2023-04-17T10:40:07.015Z,957.76
2023-04-17T10:55:08.808Z,957.71
2023-04-17T11:10:10.609Z,957.74
2023-04-17T11:25:12.379Z,957.95
2023-04-17T11:40:14.143Z,958.05
2023-04-17T11:55:15.865Z,958.19
2023-04-17T12:10:17.701Z,958.23
2023-04-17T12:25:19.529Z,958.3
2023-04-17T12:40:23.818Z,958.5
2023-04-17T12:55:26.332Z,958.64
2023-04-17T13:10:28.098Z,958.89
2023-04-17T13:25:29.878Z,959.18
2023-04-17T13:40:31.592Z,959.29
2023-04-17T13:55:33.533Z,959.52
2023-04-17T14:10:35.313Z,959.7
2023-04-17T14:25:37.075Z,959.84
2023-04-17T14:40:38.897Z,959.78
2023-04-17T14:55:40.647Z,959.93
2023-04-17T15:10:50.769Z,960.03
2023-04-17T15:25:53.547Z,960.05
2023-04-17T15:40:55.361Z,959.97
2023-04-17T15:55:57.144Z,959.81
2023-04-17T16:10:58.902Z,959.88
2023-04-17T16:26:00.911Z,959.63
2023-04-17T16:41:02.718Z,959.29
2023-04-17T16:56:04.503Z,959.12
2023-04-17T17:11:06.258Z,959.04
2023-04-17T17:26:07.994Z,958.93
2023-04-17T17:41:09.729Z,958.8
2023-04-17T17:56:11.493Z,958.61
2023-04-17T18:11:13.234Z,958.52
2023-04-17T18:26:15.025Z,958.36
2023-04-17T18:41:16.758Z,958.24
2023-04-17T18:56:18.479Z,958.21
2023-04-17T19:11:20.220Z,958.03
2023-04-17T19:26:21.995Z,957.8
2023-04-17T19:41:23.765Z,957.63
2023-04-17T19:56:25.513Z,957.49
2023-04-17T20:11:27.282Z,957.27
2023-04-17T20:26:29.061Z,957.06
2023-04-17T20:41:30.933Z,956.72
2023-04-17T20:56:32.674Z,956.46
2023-04-17T21:11:34.430Z,956.22
2023-04-17T21:26:36.224Z,955.93
2023-04-17T21:41:37.964Z,955.67
2023-04-17T21:56:39.671Z,955.29
2023-04-17T22:11:41.386Z,955
2023-04-17T22:26:43.109Z,954.63
2023-04-17T22:41:44.907Z,954.29
2023-04-17T22:56:46.638Z,953.99
2023-04-17T23:11:48.554Z,953.82
2023-04-17T23:26:50.276Z,953.75
2023-04-17T23:41:52.091Z,953.44
2023-04-17T23:56:53.836Z,953.33
